sensor_id;sensor_type;location;lat;lon;timestamp;pressure;altitude;pressure_sealevel;temperature;humidity
67029;BME280;53934;52.142;11.738;2022-09-12T00:01:31;101297.13;;;15.11;85.24
67029;BME280;53934;52.142;11.738;2022-09-12T00:04:00;101297.09;;;15.39;83.43
67029;BME280;53934;52.142;11.738;2022-09-12T00:06:27;101296.38;;;15.51;82.23
67029;BME280;53934;52.142;11.738;2022-09-12T00:08:54;101297.03;;;14.98;84.58
67029;BME280;53934;52.142;11.738;2022-09-12T00:11:20;101291.28;;;14.92;84.92
67029;BME280;53934;52.142;11.738;2022-09-12T00:13:46;101292.00;;;14.94;85.31
67029;BME280;53934;52.142;11.738;2022-09-12T00:16:14;101294.84;;;15.19;84.25
67029;BME280;53934;52.142;11.738;2022-09-12T00:18:40;101290.88;;;15.54;82.50
67029;BME280;53934;52.142;11.738;2022-09-12T00:21:08;101293.72;;;15.51;81.38
67029;BME280;53934;52.142;11.738;2022-09-12T00:23:35;101292.00;;;15.65;81.00
67029;BME280;53934;52.142;11.738;2022-09-12T00:26:02;101301.63;;;15.23;83.00
67029;BME280;53934;52.142;11.738;2022-09-12T00:28:29;101295.03;;;15.30;83.89
67029;BME280;53934;52.142;11.738;2022-09-12T00:30:55;101302.22;;;15.14;84.67
67029;BME280;53934;52.142;11.738;2022-09-12T00:33:21;101299.38;;;15.31;84.00
67029;BME280;53934;52.142;11.738;2022-09-12T00:35:48;101296.41;;;15.64;81.76
67029;BME280;53934;52.142;11.738;2022-09-12T00:38:18;101297.84;;;15.41;82.08
67029;BME280;53934;52.142;11.738;2022-09-12T00:40:45;101295.50;;;15.23;83.52
67029;BME280;53934;52.142;11.738;2022-09-12T00:43:12;101303.63;;;14.91;84.93
67029;BME280;53934;52.142;11.738;2022-09-12T00:45:38;101292.41;;;14.88;86.50
67029;BME280;53934;52.142;11.738;2022-09-12T00:48:07;101286.00;;;15.06;85.76
67029;BME280;53934;52.142;11.738;2022-09-12T00:50:41;101293.53;;;15.54;83.95
67029;BME280;53934;52.142;11.738;2022-09-12T00:53:08;101299.03;;;15.78;82.36
67029;BME280;53934;52.142;11.738;2022-09-12T00:55:36;101299.81;;;15.93;82.24
67029;BME280;53934;52.142;11.738;2022-09-12T00:58:06;101294.66;;;15.91;81.98
67029;BME280;53934;52.142;11.738;2022-09-12T01:00:34;101297.94;;;15.68;83.21
67029;BME280;53934;52.142;11.738;2022-09-12T01:03:01;101302.13;;;15.30;85.63
67029;BME280;53934;52.142;11.738;2022-09-12T01:05:29;101287.88;;;15.18;86.70
67029;BME280;53934;52.142;11.738;2022-09-12T01:07:56;101288.03;;;15.15;87.33
67029;BME280;53934;52.142;11.738;2022-09-12T01:10:22;101289.28;;;15.09;87.58
67029;BME280;53934;52.142;11.738;2022-09-12T01:12:50;101281.50;;;15.63;85.52
67029;BME280;53934;52.142;11.738;2022-09-12T01:15:16;101281.47;;;16.04;82.69
67029;BME280;53934;52.142;11.738;2022-09-12T01:17:47;101286.00;;;16.41;80.83
67029;BME280;53934;52.142;11.738;2022-09-12T01:20:20;101274.44;;;16.17;81.52
67029;BME280;53934;52.142;11.738;2022-09-12T01:22:59;101269.91;;;15.92;83.11
67029;BME280;53934;52.142;11.738;2022-09-12T01:25:34;101271.19;;;15.73;84.12
67029;BME280;53934;52.142;11.738;2022-09-12T01:28:16;101268.88;;;15.40;86.21
67029;BME280;53934;52.142;11.738;2022-09-12T01:30:49;101271.72;;;15.92;84.01
67029;BME280;53934;52.142;11.738;2022-09-12T01:38:51;101268.94;;;15.93;82.98
67029;BME280;53934;52.142;11.738;2022-09-12T01:41:23;101272.09;;;15.59;85.33
67029;BME280;53934;52.142;11.738;2022-09-12T01:43:51;101267.88;;;15.28;87.50
67029;BME280;53934;52.142;11.738;2022-09-12T01:46:26;101263.50;;;15.27;88.19
67029;BME280;53934;52.142;11.738;2022-09-12T01:48:56;101267.72;;;15.99;84.48
67029;BME280;53934;52.142;11.738;2022-09-12T01:51:27;101269.91;;;16.44;82.06
67029;BME280;53934;52.142;11.738;2022-09-12T01:53:57;101264.13;;;16.00;84.17
67029;BME280;53934;52.142;11.738;2022-09-12T01:56:28;101261.75;;;15.69;86.41
67029;BME280;53934;52.142;11.738;2022-09-12T01:58:59;101261.00;;;16.20;83.81
67029;BME280;53934;52.142;11.738;2022-09-12T02:01:28;101259.16;;;16.08;83.23
67029;BME280;53934;52.142;11.738;2022-09-12T02:03:57;101255.34;;;16.12;83.43
67029;BME280;53934;52.142;11.738;2022-09-12T02:06:26;101251.25;;;15.12;87.46
67029;BME280;53934;52.142;11.738;2022-09-12T02:08:56;101248.59;;;15.40;87.19
67029;BME280;53934;52.142;11.738;2022-09-12T02:11:24;101241.75;;;15.91;84.09
67029;BME280;53934;52.142;11.738;2022-09-12T02:13:52;101241.19;;;16.13;82.61
67029;BME280;53934;52.142;11.738;2022-09-12T02:16:20;101247.56;;;16.48;80.98
67029;BME280;53934;52.142;11.738;2022-09-12T02:18:49;101251.25;;;16.73;79.88
67029;BME280;53934;52.142;11.738;2022-09-12T02:21:17;101248.66;;;16.96;78.16
67029;BME280;53934;52.142;11.738;2022-09-12T02:23:45;101248.88;;;16.93;76.95
67029;BME280;53934;52.142;11.738;2022-09-12T02:26:14;101246.41;;;16.52;77.74
67029;BME280;53934;52.142;11.738;2022-09-12T02:28:43;101247.34;;;16.26;78.55
67029;BME280;53934;52.142;11.738;2022-09-12T02:31:12;101249.06;;;16.52;77.55
67029;BME280;53934;52.142;11.738;2022-09-12T02:33:43;101237.03;;;16.61;76.07
67029;BME280;53934;52.142;11.738;2022-09-12T02:36:14;101235.53;;;15.66;80.48
67029;BME280;53934;52.142;11.738;2022-09-12T02:38:48;101228.59;;;15.50;81.72
67029;BME280;53934;52.142;11.738;2022-09-12T02:41:16;101233.28;;;15.86;80.03
67029;BME280;53934;52.142;11.738;2022-09-12T02:43:44;101235.16;;;16.11;78.12
67029;BME280;53934;52.142;11.738;2022-09-12T02:46:12;101235.03;;;16.00;77.59
67029;BME280;53934;52.142;11.738;2022-09-12T02:48:41;101226.84;;;15.90;78.00
67029;BME280;53934;52.142;11.738;2022-09-12T02:51:08;101226.09;;;15.62;79.10
67029;BME280;53934;52.142;11.738;2022-09-12T02:53:36;101225.59;;;15.69;78.47
67029;BME280;53934;52.142;11.738;2022-09-12T02:56:02;101227.47;;;15.94;77.18
67029;BME280;53934;52.142;11.738;2022-09-12T02:58:30;101221.81;;;16.00;76.43
67029;BME280;53934;52.142;11.738;2022-09-12T03:00:59;101233.31;;;15.99;75.37
67029;BME280;53934;52.142;11.738;2022-09-12T03:03:32;101235.63;;;15.91;74.65
67029;BME280;53934;52.142;11.738;2022-09-12T03:06:04;101233.97;;;15.76;74.77
67029;BME280;53934;52.142;11.738;2022-09-12T03:08:40;101235.88;;;15.74;74.41
67029;BME280;53934;52.142;11.738;2022-09-12T03:11:19;101239.38;;;15.33;75.43
67029;BME280;53934;52.142;11.738;2022-09-12T03:13:52;101229.78;;;14.90;77.08
67029;BME280;53934;52.142;11.738;2022-09-12T03:16:24;101233.53;;;14.57;78.90
67029;BME280;53934;52.142;11.738;2022-09-12T03:18:55;101232.59;;;14.58;80.63
67029;BME280;53934;52.142;11.738;2022-09-12T03:21:24;101230.81;;;14.73;79.53
67029;BME280;53934;52.142;11.738;2022-09-12T03:23:57;101223.78;;;14.00;82.64
67029;BME280;53934;52.142;11.738;2022-09-12T03:26:25;101221.91;;;14.16;82.66
67029;BME280;53934;52.142;11.738;2022-09-12T03:28:53;101226.28;;;13.72;85.76
67029;BME280;53934;52.142;11.738;2022-09-12T03:31:20;101225.44;;;14.01;85.72
67029;BME280;53934;52.142;11.738;2022-09-12T03:33:47;101226.00;;;14.22;84.17
67029;BME280;53934;52.142;11.738;2022-09-12T03:36:13;101226.94;;;13.91;86.91
67029;BME280;53934;52.142;11.738;2022-09-12T03:38:41;101231.28;;;14.51;82.97
67029;BME280;53934;52.142;11.738;2022-09-12T03:41:08;101235.25;;;14.58;81.78
67029;BME280;53934;52.142;11.738;2022-09-12T03:43:34;101232.13;;;14.80;80.58
67029;BME280;53934;52.142;11.738;2022-09-12T03:46:01;101227.91;;;14.78;78.73
67029;BME280;53934;52.142;11.738;2022-09-12T03:48:27;101237.78;;;14.30;78.80
67029;BME280;53934;52.142;11.738;2022-09-12T03:50:58;101238.56;;;14.32;79.14
67029;BME280;53934;52.142;11.738;2022-09-12T03:53:24;101244.09;;;13.98;80.59
67029;BME280;53934;52.142;11.738;2022-09-12T03:55:50;101242.16;;;13.86;81.76
67029;BME280;53934;52.142;11.738;2022-09-12T03:58:18;101239.03;;;13.79;83.08
67029;BME280;53934;52.142;11.738;2022-09-12T04:00:44;101238.78;;;13.84;83.36
67029;BME280;53934;52.142;11.738;2022-09-12T04:03:11;101248.84;;;14.07;82.44
67029;BME280;53934;52.142;11.738;2022-09-12T04:05:37;101247.72;;;13.81;83.38
67029;BME280;53934;52.142;11.738;2022-09-12T04:08:03;101249.59;;;13.48;84.50
67029;BME280;53934;52.142;11.738;2022-09-12T04:10:29;101244.66;;;13.42;86.64
67029;BME280;53934;52.142;11.738;2022-09-12T04:12:56;101241.63;;;13.34;89.10
67029;BME280;53934;52.142;11.738;2022-09-12T04:15:24;101237.78;;;13.55;88.23
67029;BME280;53934;52.142;11.738;2022-09-12T04:17:50;101243.09;;;13.85;85.92
67029;BME280;53934;52.142;11.738;2022-09-12T04:20:16;101241.44;;;13.98;85.25
67029;BME280;53934;52.142;11.738;2022-09-12T04:22:43;101234.69;;;14.08;84.05
67029;BME280;53934;52.142;11.738;2022-09-12T04:25:09;101235.03;;;13.88;84.47
67029;BME280;53934;52.142;11.738;2022-09-12T04:27:35;101229.38;;;13.48;86.15
67029;BME280;53934;52.142;11.738;2022-09-12T04:30:02;101237.34;;;13.78;85.57
67029;BME280;53934;52.142;11.738;2022-09-12T04:32:30;101241.97;;;14.34;82.83
67029;BME280;53934;52.142;11.738;2022-09-12T04:34:56;101239.28;;;14.78;79.73
67029;BME280;53934;52.142;11.738;2022-09-12T04:37:22;101238.81;;;14.86;78.32
67029;BME280;53934;52.142;11.738;2022-09-12T04:39:48;101233.16;;;15.06;77.35
67029;BME280;53934;52.142;11.738;2022-09-12T04:42:15;101244.69;;;14.91;76.86
67029;BME280;53934;52.142;11.738;2022-09-12T04:44:42;101244.38;;;14.67;77.26
67029;BME280;53934;52.142;11.738;2022-09-12T04:47:08;101247.13;;;14.66;76.96
67029;BME280;53934;52.142;11.738;2022-09-12T04:49:36;101250.16;;;14.30;77.64
67029;BME280;53934;52.142;11.738;2022-09-12T04:52:02;101257.31;;;14.12;78.31
67029;BME280;53934;52.142;11.738;2022-09-12T04:54:28;101240.97;;;14.21;78.26
67029;BME280;53934;52.142;11.738;2022-09-12T04:56:54;101257.44;;;14.10;78.29
67029;BME280;53934;52.142;11.738;2022-09-12T04:59:21;101249.56;;;13.63;81.21
67029;BME280;53934;52.142;11.738;2022-09-12T05:01:47;101258.16;;;14.12;79.84
67029;BME280;53934;52.142;11.738;2022-09-12T05:04:13;101253.91;;;14.26;78.75
67029;BME280;53934;52.142;11.738;2022-09-12T05:06:41;101249.94;;;13.57;82.08
67029;BME280;53934;52.142;11.738;2022-09-12T05:09:09;101249.44;;;13.67;82.02
67029;BME280;53934;52.142;11.738;2022-09-12T05:11:36;101257.16;;;13.70;81.77
67029;BME280;53934;52.142;11.738;2022-09-12T05:14:03;101248.69;;;13.94;81.07
67029;BME280;53934;52.142;11.738;2022-09-12T05:16:29;101254.34;;;13.73;80.47
67029;BME280;53934;52.142;11.738;2022-09-12T05:18:57;101246.34;;;13.74;82.51
67029;BME280;53934;52.142;11.738;2022-09-12T05:21:24;101253.47;;;13.88;81.90
67029;BME280;53934;52.142;11.738;2022-09-12T05:23:52;101254.19;;;13.44;84.00
67029;BME280;53934;52.142;11.738;2022-09-12T05:26:18;101264.66;;;14.07;83.69
67029;BME280;53934;52.142;11.738;2022-09-12T05:28:45;101258.66;;;14.35;81.24
67029;BME280;53934;52.142;11.738;2022-09-12T05:31:12;101258.75;;;13.72;84.95
67029;BME280;53934;52.142;11.738;2022-09-12T05:33:40;101259.22;;;14.10;84.32
67029;BME280;53934;52.142;11.738;2022-09-12T05:36:08;101263.41;;;14.28;83.45
67029;BME280;53934;52.142;11.738;2022-09-12T05:38:34;101264.41;;;14.41;82.98
67029;BME280;53934;52.142;11.738;2022-09-12T05:41:03;101264.66;;;14.67;82.45
67029;BME280;53934;52.142;11.738;2022-09-12T05:43:30;101265.31;;;14.70;82.28
67029;BME280;53934;52.142;11.738;2022-09-12T05:45:59;101272.66;;;14.51;83.79
67029;BME280;53934;52.142;11.738;2022-09-12T05:48:25;101269.69;;;14.85;83.09
67029;BME280;53934;52.142;11.738;2022-09-12T05:50:52;101277.72;;;14.40;85.74
67029;BME280;53934;52.142;11.738;2022-09-12T05:53:23;101274.56;;;14.33;87.14
67029;BME280;53934;52.142;11.738;2022-09-12T05:56:00;101273.84;;;15.03;83.97
67029;BME280;53934;52.142;11.738;2022-09-12T05:58:27;101280.84;;;15.59;81.91
67029;BME280;53934;52.142;11.738;2022-09-12T06:00:54;101282.88;;;16.10;79.26
67029;BME280;53934;52.142;11.738;2022-09-12T06:03:20;101278.94;;;16.02;78.85
67029;BME280;53934;52.142;11.738;2022-09-12T06:05:46;101290.50;;;15.87;79.46
67029;BME280;53934;52.142;11.738;2022-09-12T06:08:13;101293.81;;;16.30;79.08
67029;BME280;53934;52.142;11.738;2022-09-12T06:10:39;101296.44;;;17.33;74.39
67029;BME280;53934;52.142;11.738;2022-09-12T06:13:05;101294.94;;;17.78;72.15
67029;BME280;53934;52.142;11.738;2022-09-12T06:15:33;101292.72;;;17.23;73.68
67029;BME280;53934;52.142;11.738;2022-09-12T06:18:00;101304.53;;;17.06;74.84
67029;BME280;53934;52.142;11.738;2022-09-12T06:20:26;101290.16;;;17.34;75.15
67029;BME280;53934;52.142;11.738;2022-09-12T06:22:52;101293.72;;;17.71;73.58
67029;BME280;53934;52.142;11.738;2022-09-12T06:25:18;101292.91;;;17.81;73.09
67029;BME280;53934;52.142;11.738;2022-09-12T06:27:46;101297.22;;;19.11;67.97
67029;BME280;53934;52.142;11.738;2022-09-12T06:30:13;101289.03;;;19.14;67.94
67029;BME280;53934;52.142;11.738;2022-09-12T06:32:41;101287.66;;;18.97;68.77
67029;BME280;53934;52.142;11.738;2022-09-12T06:35:07;101285.84;;;18.86;69.50
67029;BME280;53934;52.142;11.738;2022-09-12T06:37:33;101293.78;;;19.86;68.17
67029;BME280;53934;52.142;11.738;2022-09-12T06:40:00;101292.94;;;20.91;64.47
67029;BME280;53934;52.142;11.738;2022-09-12T06:42:26;101284.81;;;20.51;63.60
67029;BME280;53934;52.142;11.738;2022-09-12T06:44:52;101280.88;;;20.14;67.00
67029;BME280;53934;52.142;11.738;2022-09-12T06:47:18;101289.66;;;21.08;64.63
67029;BME280;53934;52.142;11.738;2022-09-12T06:49:46;101286.34;;;22.24;59.64
67029;BME280;53934;52.142;11.738;2022-09-12T06:52:12;101279.28;;;22.23;60.89
67029;BME280;53934;52.142;11.738;2022-09-12T06:54:38;101280.41;;;22.21;60.86
67029;BME280;53934;52.142;11.738;2022-09-12T06:57:05;101272.97;;;22.15;59.25
67029;BME280;53934;52.142;11.738;2022-09-12T06:59:31;101270.56;;;22.12;60.02
67029;BME280;53934;52.142;11.738;2022-09-12T07:01:57;101267.34;;;22.08;60.19
67029;BME280;53934;52.142;11.738;2022-09-12T07:04:23;101270.44;;;21.45;62.48
67029;BME280;53934;52.142;11.738;2022-09-12T07:06:51;101270.72;;;22.01;60.88
67029;BME280;53934;52.142;11.738;2022-09-12T07:09:17;101269.56;;;22.03;59.33
67029;BME280;53934;52.142;11.738;2022-09-12T07:11:43;101260.78;;;21.63;60.85
67029;BME280;53934;52.142;11.738;2022-09-12T07:14:10;101267.94;;;21.62;62.53
67029;BME280;53934;52.142;11.738;2022-09-12T07:16:37;101264.53;;;22.00;60.30
67029;BME280;53934;52.142;11.738;2022-09-12T07:19:03;101267.75;;;22.23;58.49
67029;BME280;53934;52.142;11.738;2022-09-12T07:21:30;101271.53;;;22.68;56.84
67029;BME280;53934;52.142;11.738;2022-09-12T07:23:58;101273.88;;;23.18;58.19
67029;BME280;53934;52.142;11.738;2022-09-12T07:26:25;101273.69;;;23.29;55.59
67029;BME280;53934;52.142;11.738;2022-09-12T07:28:52;101274.56;;;23.57;55.73
67029;BME280;53934;52.142;11.738;2022-09-12T07:31:19;101271.72;;;24.39;54.67
67029;BME280;53934;52.142;11.738;2022-09-12T07:33:46;101266.59;;;25.31;50.17
67029;BME280;53934;52.142;11.738;2022-09-12T07:36:14;101270.31;;;24.78;51.33
67029;BME280;53934;52.142;11.738;2022-09-12T07:38:41;101271.50;;;24.58;54.66
67029;BME280;53934;52.142;11.738;2022-09-12T07:41:12;101271.47;;;23.79;53.75
67029;BME280;53934;52.142;11.738;2022-09-12T07:43:39;101275.72;;;24.35;53.28
67029;BME280;53934;52.142;11.738;2022-09-12T07:46:05;101275.13;;;24.92;50.17
67029;BME280;53934;52.142;11.738;2022-09-12T07:48:32;101273.19;;;24.59;52.21
67029;BME280;53934;52.142;11.738;2022-09-12T07:50:58;101275.13;;;23.23;53.81
67029;BME280;53934;52.142;11.738;2022-09-12T07:53:25;101266.66;;;24.00;53.71
67029;BME280;53934;52.142;11.738;2022-09-12T07:55:52;101276.13;;;24.48;51.64
67029;BME280;53934;52.142;11.738;2022-09-12T07:58:20;101266.47;;;25.40;49.40
67029;BME280;53934;52.142;11.738;2022-09-12T08:00:46;101266.13;;;25.85;47.17
67029;BME280;53934;52.142;11.738;2022-09-12T08:03:12;101261.75;;;25.92;44.61
67029;BME280;53934;52.142;11.738;2022-09-12T08:05:38;101262.09;;;25.81;46.38
67029;BME280;53934;52.142;11.738;2022-09-12T08:08:05;101270.00;;;26.88;45.09
67029;BME280;53934;52.142;11.738;2022-09-12T08:10:31;101272.53;;;26.97;42.48
67029;BME280;53934;52.142;11.738;2022-09-12T08:12:57;101278.75;;;26.90;43.84
67029;BME280;53934;52.142;11.738;2022-09-12T08:15:25;101277.50;;;25.63;45.47
67029;BME280;53934;52.142;11.738;2022-09-12T08:17:51;101270.31;;;25.38;43.14
67029;BME280;53934;52.142;11.738;2022-09-12T08:20:17;101275.34;;;25.91;45.23
67029;BME280;53934;52.142;11.738;2022-09-12T08:22:44;101272.88;;;26.54;42.70
67029;BME280;53934;52.142;11.738;2022-09-12T08:25:10;101276.28;;;26.24;42.50
67029;BME280;53934;52.142;11.738;2022-09-12T08:27:36;101279.28;;;26.85;41.12
67029;BME280;53934;52.142;11.738;2022-09-12T08:30:03;101276.75;;;26.43;43.68
67029;BME280;53934;52.142;11.738;2022-09-12T08:32:31;101280.91;;;27.02;44.40
67029;BME280;53934;52.142;11.738;2022-09-12T08:34:59;101274.03;;;26.92;43.47
67029;BME280;53934;52.142;11.738;2022-09-12T08:37:28;101278.31;;;27.17;43.31
67029;BME280;53934;52.142;11.738;2022-09-12T08:39:54;101278.72;;;27.45;41.86
67029;BME280;53934;52.142;11.738;2022-09-12T08:42:22;101280.22;;;27.55;41.48
67029;BME280;53934;52.142;11.738;2022-09-12T08:44:57;101285.16;;;26.89;44.23
67029;BME280;53934;52.142;11.738;2022-09-12T08:47:27;101274.19;;;26.98;44.89
67029;BME280;53934;52.142;11.738;2022-09-12T08:49:59;101281.31;;;27.69;44.39
67029;BME280;53934;52.142;11.738;2022-09-12T08:52:28;101278.78;;;27.98;44.07
67029;BME280;53934;52.142;11.738;2022-09-12T08:54:56;101271.13;;;27.56;40.72
67029;BME280;53934;52.142;11.738;2022-09-12T08:57:22;101278.94;;;27.27;42.44
67029;BME280;53934;52.142;11.738;2022-09-12T08:59:49;101274.47;;;27.20;42.62
67029;BME280;53934;52.142;11.738;2022-09-12T09:02:30;101272.28;;;27.15;42.34
67029;BME280;53934;52.142;11.738;2022-09-12T09:05:01;101263.84;;;26.31;43.21
67029;BME280;53934;52.142;11.738;2022-09-12T09:10:18;101268.97;;;27.52;41.63
67029;BME280;53934;52.142;11.738;2022-09-12T09:12:48;101272.38;;;26.67;43.82
67029;BME280;53934;52.142;11.738;2022-09-12T09:15:24;101267.78;;;26.99;44.44
67029;BME280;53934;52.142;11.738;2022-09-12T09:17:57;101263.59;;;26.97;42.98
67029;BME280;53934;52.142;11.738;2022-09-12T09:20:27;101258.97;;;27.61;42.73
67029;BME280;53934;52.142;11.738;2022-09-12T09:22:56;101248.84;;;28.16;40.54
67029;BME280;53934;52.142;11.738;2022-09-12T09:25:24;101256.44;;;28.13;39.10
67029;BME280;53934;52.142;11.738;2022-09-12T09:27:53;101258.84;;;27.54;40.22
67029;BME280;53934;52.142;11.738;2022-09-12T09:30:22;101251.34;;;27.33;42.34
67029;BME280;53934;52.142;11.738;2022-09-12T09:32:49;101252.00;;;27.74;42.30
67029;BME280;53934;52.142;11.738;2022-09-12T09:35:17;101261.31;;;27.86;40.39
67029;BME280;53934;52.142;11.738;2022-09-12T09:40:33;101251.13;;;28.42;40.85
67029;BME280;53934;52.142;11.738;2022-09-12T09:43:03;101252.00;;;28.57;39.96
67029;BME280;53934;52.142;11.738;2022-09-12T09:45:32;101251.34;;;28.92;39.88
67029;BME280;53934;52.142;11.738;2022-09-12T09:48:02;101255.69;;;28.79;40.15
67029;BME280;53934;52.142;11.738;2022-09-12T09:50:31;101241.78;;;28.15;39.69
67029;BME280;53934;52.142;11.738;2022-09-12T09:52:58;101250.16;;;26.64;42.06
67029;BME280;53934;52.142;11.738;2022-09-12T09:55:27;101239.97;;;27.54;40.59
67029;BME280;53934;52.142;11.738;2022-09-12T09:57:56;101243.03;;;27.43;42.44
67029;BME280;53934;52.142;11.738;2022-09-12T10:00:24;101241.09;;;27.68;41.44
67029;BME280;53934;52.142;11.738;2022-09-12T10:03:01;101235.03;;;27.88;40.31
67029;BME280;53934;52.142;11.738;2022-09-12T10:05:28;101239.34;;;27.44;39.92
67029;BME280;53934;52.142;11.738;2022-09-12T10:07:55;101240.81;;;27.16;39.58
67029;BME280;53934;52.142;11.738;2022-09-12T10:10:22;101229.47;;;27.67;40.26
67029;BME280;53934;52.142;11.738;2022-09-12T10:12:49;101228.19;;;26.53;42.83
67029;BME280;53934;52.142;11.738;2022-09-12T10:15:17;101236.81;;;25.08;44.72
67029;BME280;53934;52.142;11.738;2022-09-12T10:17:44;101226.81;;;25.76;42.77
67029;BME280;53934;52.142;11.738;2022-09-12T10:22:52;101219.19;;;27.32;40.05
67029;BME280;53934;52.142;11.738;2022-09-12T10:25:18;101214.75;;;27.16;39.97
67029;BME280;53934;52.142;11.738;2022-09-12T10:27:50;101211.25;;;27.69;41.65
67029;BME280;53934;52.142;11.738;2022-09-12T10:30:19;101216.91;;;27.82;40.95
67029;BME280;53934;52.142;11.738;2022-09-12T10:32:49;101213.97;;;28.15;36.33
67029;BME280;53934;52.142;11.738;2022-09-12T10:35:16;101207.03;;;28.35;36.81
67029;BME280;53934;52.142;11.738;2022-09-12T10:37:49;101205.50;;;27.72;36.15
67029;BME280;53934;52.142;11.738;2022-09-12T10:40:19;101209.03;;;27.50;39.29
67029;BME280;53934;52.142;11.738;2022-09-12T10:42:48;101202.88;;;26.94;38.74
67029;BME280;53934;52.142;11.738;2022-09-12T10:45:23;101207.59;;;26.92;41.21
67029;BME280;53934;52.142;11.738;2022-09-12T10:47:50;101203.25;;;27.22;40.22
67029;BME280;53934;52.142;11.738;2022-09-12T10:50:21;101198.03;;;26.74;39.15
67029;BME280;53934;52.142;11.738;2022-09-12T10:52:47;101196.63;;;25.90;41.94
67029;BME280;53934;52.142;11.738;2022-09-12T10:55:14;101199.28;;;26.39;41.75
67029;BME280;53934;52.142;11.738;2022-09-12T10:57:50;101197.56;;;26.70;40.08
67029;BME280;53934;52.142;11.738;2022-09-12T11:00:20;101194.50;;;26.81;39.93
67029;BME280;53934;52.142;11.738;2022-09-12T11:02:57;101191.44;;;26.92;39.10
67029;BME280;53934;52.142;11.738;2022-09-12T11:05:37;101187.38;;;27.35;38.77
67029;BME280;53934;52.142;11.738;2022-09-12T11:08:10;101188.44;;;27.57;37.30
67029;BME280;53934;52.142;11.738;2022-09-12T11:10:39;101191.19;;;27.10;38.75
67029;BME280;53934;52.142;11.738;2022-09-12T11:13:14;101186.81;;;27.09;40.22
67029;BME280;53934;52.142;11.738;2022-09-12T11:15:51;101186.72;;;26.94;38.63
67029;BME280;53934;52.142;11.738;2022-09-12T11:21:09;101182.66;;;26.35;39.65
67029;BME280;53934;52.142;11.738;2022-09-12T11:23:55;101179.00;;;26.91;39.10
67029;BME280;53934;52.142;11.738;2022-09-12T11:26:29;101187.19;;;26.02;38.80
67029;BME280;53934;52.142;11.738;2022-09-12T11:29:01;101176.16;;;26.93;39.13
67029;BME280;53934;52.142;11.738;2022-09-12T11:31:41;101171.75;;;27.62;39.60
67029;BME280;53934;52.142;11.738;2022-09-12T11:34:12;101170.13;;;28.50;36.22
67029;BME280;53934;52.142;11.738;2022-09-12T11:36:45;101167.69;;;28.26;36.69
67029;BME280;53934;52.142;11.738;2022-09-12T11:39:15;101162.25;;;27.43;37.41
67029;BME280;53934;52.142;11.738;2022-09-12T11:41:42;101166.91;;;27.26;39.46
67029;BME280;53934;52.142;11.738;2022-09-12T11:44:14;101156.09;;;27.57;38.47
67029;BME280;53934;52.142;11.738;2022-09-12T11:46:43;101161.38;;;27.73;38.63
67029;BME280;53934;52.142;11.738;2022-09-12T11:49:12;101159.66;;;27.80;36.41
67029;BME280;53934;52.142;11.738;2022-09-12T11:51:43;101147.16;;;28.02;36.57
67029;BME280;53934;52.142;11.738;2022-09-12T11:54:14;101152.50;;;27.87;38.02
67029;BME280;53934;52.142;11.738;2022-09-12T11:56:45;101146.66;;;27.84;37.04
67029;BME280;53934;52.142;11.738;2022-09-12T11:59:16;101149.41;;;27.22;37.28
67029;BME280;53934;52.142;11.738;2022-09-12T12:01:44;101154.22;;;25.44;39.68
67029;BME280;53934;52.142;11.738;2022-09-12T12:04:15;101157.97;;;25.59;41.96
67029;BME280;53934;52.142;11.738;2022-09-12T12:06:47;101151.41;;;26.10;40.03
67029;BME280;53934;52.142;11.738;2022-09-12T12:09:16;101150.56;;;26.42;42.00
67029;BME280;53934;52.142;11.738;2022-09-12T12:11:43;101148.41;;;26.76;39.04
67029;BME280;53934;52.142;11.738;2022-09-12T12:14:12;101148.06;;;26.87;38.26
67029;BME280;53934;52.142;11.738;2022-09-12T12:16:39;101143.75;;;27.09;37.98
67029;BME280;53934;52.142;11.738;2022-09-12T12:19:08;101139.09;;;27.03;38.66
67029;BME280;53934;52.142;11.738;2022-09-12T12:21:39;101138.47;;;26.93;39.45
67029;BME280;53934;52.142;11.738;2022-09-12T12:24:12;101138.34;;;26.86;40.03
67029;BME280;53934;52.142;11.738;2022-09-12T12:26:40;101133.53;;;26.57;40.72
67029;BME280;53934;52.142;11.738;2022-09-12T12:29:07;101143.69;;;25.58;41.31
67029;BME280;53934;52.142;11.738;2022-09-12T12:31:37;101137.72;;;25.14;40.25
67029;BME280;53934;52.142;11.738;2022-09-12T12:34:28;101138.34;;;25.83;42.65
67029;BME280;53934;52.142;11.738;2022-09-12T12:36:54;101126.75;;;25.82;40.46
67029;BME280;53934;52.142;11.738;2022-09-12T12:42:10;101134.56;;;25.27;41.94
67029;BME280;53934;52.142;11.738;2022-09-12T12:44:56;101130.97;;;24.94;40.96
67029;BME280;53934;52.142;11.738;2022-09-12T12:47:22;101132.19;;;24.14;42.54
67029;BME280;53934;52.142;11.738;2022-09-12T12:49:51;101132.69;;;24.44;43.34
67029;BME280;53934;52.142;11.738;2022-09-12T12:52:18;101114.56;;;25.13;40.97
67029;BME280;53934;52.142;11.738;2022-09-12T12:54:49;101117.13;;;25.23;43.47
67029;BME280;53934;52.142;11.738;2022-09-12T12:57:28;101116.63;;;25.36;41.62
67029;BME280;53934;52.142;11.738;2022-09-12T12:59:56;101116.94;;;25.25;42.04
67029;BME280;53934;52.142;11.738;2022-09-12T13:02:25;101117.03;;;24.57;41.53
67029;BME280;53934;52.142;11.738;2022-09-12T13:04:52;101108.44;;;24.87;40.29
67029;BME280;53934;52.142;11.738;2022-09-12T13:07:20;101102.44;;;24.93;41.49